Flight Track Log - Related Links

Times and Time Zones

All times are in EDT time to prevent confusion due to time zone crossing. See the N75ZM flight status page for this flight to view local times or setup timezone preferences in your user account.

Time Position Orientation Groundspeed Altitude Reporting Facility
EDT Latitude Longitude Course Direction KTS MPH feet Rate Location/Type
Sun 12:35:00 PM 30.2608 -85.4965 111° Southeast  Level Estimated
Sun 12:36:00 PM 30.2468 -85.4538 106° East  Level Estimated
Sun 12:37:00 PM 30.2328 -85.4111 112° Southeast  Level Estimated
Sun 12:38:00 PM 30.2181 -85.3688 112° Southeast  Level FlightAware Approximate
Sun 12:39:00 PM 30.2034 -85.3265 112° Southeast  Level FlightAware Approximate
Sun 12:40:00 PM 30.1887 -85.2841 112° Southeast  Level FlightAware Approximate
Sun 12:41:00 PM 30.1736 -85.2380 111° Southeast  Level Estimated
Sun 12:42:00 PM 30.1584 -85.1919 111° Southeast  Level Estimated
Sun 12:43:00 PM 30.1432 -85.1459 111° Southeast  Level Estimated
Sun 12:44:00 PM 30.1280 -85.0998 111° Southeast  Level Estimated
Sun 12:45:00 PM 30.1127 -85.0538 111° Southeast  Level Estimated
Sun 12:46:00 PM 30.0975 -85.0077 111° Southeast  Level Estimated
Sun 12:47:00 PM 30.0822 -84.9617 111° Southeast  Level Estimated
Sun 12:48:00 PM 30.0669 -84.9157 111° Southeast  Level Estimated
Sun 12:49:00 PM 30.0516 -84.8697 111° Southeast  Level Estimated
Sun 12:50:00 PM 30.0363 -84.8238 111° Southeast  Level Estimated
Sun 12:51:00 PM 30.0210 -84.7778 111° Southeast  Level Estimated
Sun 12:52:00 PM 30.0056 -84.7318 111° Southeast  Level Estimated
Sun 12:53:00 PM 29.9903 -84.6859 111° Southeast  Level Estimated
Sun 12:54:00 PM 29.9749 -84.6400 111° Southeast  Level Estimated
Sun 12:55:00 PM 29.9595 -84.5941 111° Southeast  Level Estimated
Sun 12:56:00 PM 29.9441 -84.5482 111° Southeast  Level Estimated
Sun 12:57:00 PM 29.9287 -84.5023 111° Southeast  Level Estimated
Sun 12:58:00 PM 29.9132 -84.4565 111° Southeast  Level Estimated
Sun 12:59:00 PM 29.8978 -84.4106 111° Southeast  Level Estimated
Sun 01:00:00 PM 29.8823 -84.3648 111° Southeast  Level Estimated
Sun 01:01:00 PM 29.8668 -84.3190 111° Southeast  Level Estimated
Sun 01:02:00 PM 29.8513 -84.2732 111° Southeast  Level Estimated
Sun 01:03:00 PM 29.8358 -84.2274 111° Southeast  Level Estimated
Sun 01:04:00 PM 29.8202 -84.1816 111° Southeast  Level Estimated
Sun 01:05:00 PM 29.8047 -84.1358 111° Southeast  Level Estimated
Sun 01:06:00 PM 29.7891 -84.0901 111° Southeast  Level Estimated
Sun 01:07:00 PM 29.7735 -84.0444 111° Southeast  Level Estimated
Sun 01:08:00 PM 29.7579 -83.9986 111° Southeast  Level Estimated
Sun 01:09:00 PM 29.7423 -83.9529 111° Southeast  Level Estimated
Sun 01:10:00 PM 29.7267 -83.9072 111° Southeast  Level Estimated
Sun 01:11:00 PM 29.7110 -83.8616 112° Southeast  Level Estimated
Sun 01:11:19 PM 30.2500 -83.9144 112° Southeast 156 180 9,200  Level Jacksonville Center
Sun 01:12:00 PM 29.6954 -83.8159 112° Southeast  Level Estimated
Sun 01:12:19 PM 30.2272 -83.8733 123° Southeast 153 176 9,200  Level Jacksonville Center
Sun 01:13:00 PM 29.6797 -83.7703 112° Southeast  Level Estimated
Sun 01:13:19 PM 30.2067 -83.8325 120° Southeast 156 180 9,200  Level Jacksonville Center
Sun 01:14:00 PM 29.6640 -83.7246 112° Southeast  Level Estimated
Sun 01:14:19 PM 30.1839 -83.7914 123° Southeast 162 186 9,100  Level Jacksonville Center
Sun 01:15:00 PM 29.6483 -83.6790 112° Southeast  Level Estimated
Sun 01:15:19 PM 30.1614 -83.7478 121° Southeast 162 186 9,200  Level Jacksonville Center
Sun 01:16:00 PM 29.6326 -83.6334 112° Southeast  Level Estimated
Sun 01:16:19 PM 30.1386 -83.7092 124° Southeast 157 181 9,200  Level Jacksonville Center
Sun 01:17:19 PM 30.1158 -83.6633 120° Southeast 157 181 9,200 -50 Level Jacksonville Center
Sun 01:18:19 PM 30.0911 -83.6225 125° Southeast 157 181 9,100  Descending Jacksonville Center
Sun 01:19:19 PM 30.0622 -83.5886 135° Southeast 157 181 9,200 50 Climbing Jacksonville Center
Sun 01:20:19 PM 30.0311 -83.5522 135° Southeast 152 175 9,200  Level Jacksonville Center
Sun 01:21:19 PM 30.0019 -83.5161 133° Southeast 152 175 9,200  Level Jacksonville Center
Sun 01:22:19 PM 29.9708 -83.4825 137° Southeast 147 169 9,200  Level Jacksonville Center
Sun 01:23:19 PM 29.9397 -83.4464 135° Southeast 147 169 9,200  Level Jacksonville Center
Sun 01:24:19 PM 29.9106 -83.4125 135° Southeast 147 169 9,200  Level Jacksonville Center
Sun 01:25:19 PM 29.8794 -83.3742 133° Southeast 147 169 9,200  Level Jacksonville Center
Sun 01:26:19 PM 29.8503 -83.3403 135° Southeast 147 169 9,200  Level Jacksonville Center
Sun 01:27:19 PM 29.8192 -83.3044 135° Southeast 147 169 9,200  Level Jacksonville Center
Sun 01:28:19 PM 29.7878 -83.2683 135° Southeast 147 169 9,200  Level Jacksonville Center
Sun 01:29:19 PM 29.7586 -83.2347 135° Southeast 147 169 9,200  Level Jacksonville Center
Sun 01:30:19 PM 29.7297 -83.1964 131° Southeast 147 169 9,200  Level Jacksonville Center
Sun 01:31:19 PM 29.6983 -83.1628 137° Southeast 147 169 9,200  Level Jacksonville Center
Sun 01:32:19 PM 29.6672 -83.1267 135° Southeast 147 169 9,200  Level Jacksonville Center
Sun 01:33:19 PM 29.6358 -83.0886 133° Southeast 154 177 9,200  Level Jacksonville Center
Sun 01:34:19 PM 29.6025 -83.0525 137° Southeast 154 177 9,200  Level Jacksonville Center
Sun 01:35:19 PM 29.5839 -83.0144 119° Southeast 154 177 9,200  Level Jacksonville Center
Sun 01:36:19 PM 29.5567 -82.9714 126° Southeast 154 177 9,200  Level Jacksonville Center
Sun 01:37:19 PM 29.5317 -82.9331 127° Southeast 154 177 9,200  Level Jacksonville Center
Sun 01:38:19 PM 29.5025 -82.8925 130° Southeast 160 184 9,200  Level Jacksonville Center
Sun 01:39:19 PM 29.4731 -82.8497 128° Southeast 160 184 9,200 -67 Level Jacksonville Center
Sun 01:39:49 PM 29.4564 -82.8306 135° Southeast 158 182 9,100 -100 Descending Jacksonville Center
Sun 01:40:19 PM 29.4481 -82.8092 114° Southeast 160 184 9,100  Level Jacksonville Center
Sun 01:40:50 PM 29.4333 -82.7875 128° Southeast 157 181 9,100 70 Level Jacksonville Center
Sun 01:41:45 PM 29.4125 -82.7494 122° Southeast 156 180 9,200 67 Climbing Jacksonville Center
Sun 01:42:19 PM 29.4022 -82.7258 117° Southeast 150 173 9,200  Level Jacksonville Center
Sun 01:42:58 PM 29.3853 -82.6994 126° Southeast 153 176 9,200 -60 Level Jacksonville Center
Sun 01:43:59 PM 29.3603 -82.6567 124° Southeast 154 177 9,100  Descending Jacksonville Center
Sun 01:45:00 PM 29.3392 -82.6186 122° Southeast 152 175 9,200 49 Climbing Jacksonville Center
Sun 01:46:01 PM 29.3161 -82.5781 123° Southeast 152 175 9,200  Level Jacksonville Center
Sun 01:46:56 PM 29.2931 -82.5425 127° Southeast 152 175 9,200  Level Jacksonville Center
Sun 01:47:57 PM 29.2722 -82.4975 118° Southeast 149 171 9,200  Level Jacksonville Center
Sun 01:48:58 PM 29.2492 -82.4569 123° Southeast 147 169 9,200 -49 Level Jacksonville Center
Sun 01:49:59 PM 29.2239 -82.4167 126° Southeast 150 173 9,100  Descending Jacksonville Center
Sun 01:51:00 PM 29.2028 -82.3789 123° Southeast 149 171 9,200 -248 Climbing Jacksonville Center
Sun 01:52:00 PM 29.1797 -82.3383 123° Southeast 148 170 8,600 -522 Descending Jacksonville Center
Sun 01:52:55 PM 29.1608 -82.3028 121° Southeast 147 169 8,200 -491 Descending Jacksonville Center
Sun 01:53:50 PM 29.1397 -82.2672 124° Southeast 149 171 7,700 -541 Descending Jacksonville Center
Sun 01:54:57 PM 29.1144 -82.2247 124° Southeast 145 167 7,100 -537 Descending Jacksonville Center
Sun 01:56:04 PM 29.0892 -82.1797 123° Southeast 143 165 6,500 -492 Descending Jacksonville Center
Sun 01:56:59 PM 29.0703 -82.1442 121° Southeast 145 167 6,100 -466 Descending Jacksonville Center
Sun 01:58:00 PM 29.0469 -82.1064 125° Southeast 148 170 5,600 -466 Descending Jacksonville Center
Sun 01:58:55 PM 29.0258 -82.0708 124° Southeast 147 169 5,200 -261 Descending Jacksonville Center
Sun 01:59:55 PM 29.0069 -82.0331 120° Southeast 141 162 5,100 -36 Descending Jacksonville Center
Sun 02:01:00 PM 28.9927 -81.9808 127° Southeast  Level FlightAware Approximate
Sun 02:01:43 PM 28.9667 -81.9667 127° Southeast 135 155 5,100  Level Orlando TRACON
Sun 02:03:02 PM 28.9333 -81.9167 127° Southeast 136 157 5,100  Level Orlando TRACON
Sun 02:04:01 PM 28.9167 -81.8833 120° Southeast 130 150 5,100  Level Orlando TRACON
Sun 02:05:02 PM 28.9000 -81.8500 120° Southeast 123 142 5,100  Level Orlando TRACON
Sun 02:06:02 PM 28.8833 -81.8167 120° Southeast 127 146 5,100  Level Orlando TRACON
Sun 02:07:08 PM 28.8667 -81.7833 120° Southeast 128 147 5,100 -238 Level Orlando TRACON
Sun 02:08:08 PM 28.8500 -81.7333 111° Southeast 129 148 4,600 -450 Descending Orlando TRACON
Sun 02:09:08 PM 28.8500 -81.7000 90° East 130 150 4,200 -263 Descending Orlando TRACON
Sun 02:10:02 PM 28.8500 -81.6667 90° East 123 142 4,100  Descending Orlando TRACON
Sun 02:11:02 PM 28.8333 -81.6167 111° Southeast 126 145 4,200 -53 Climbing Orlando TRACON
Sun 02:11:56 PM 28.8333 -81.5833 90° East 128 147 4,000 -421 Descending Orlando TRACON
Sun 02:12:56 PM 28.8167 -81.5500 120° Southeast 135 155 3,400 -667 Descending Orlando TRACON
Sun 02:14:02 PM 28.8000 -81.5167 120° Southeast 88 101 2,600 -567 Descending Orlando TRACON
Sun 02:15:03 PM 28.8000 -81.5000 90° East 80 92 2,200 -248 Descending Orlando TRACON
Sun 02:16:03 PM 28.7833 -81.4667 120° Southeast 88 101 2,100  Descending Orlando TRACON
Sun 02:17:03 PM 28.7833 -81.4333 90° East 111 128 2,200 50 Climbing Orlando TRACON
Sun 02:18:03 PM 28.7833 -81.4000 90° East 117 135 2,200  Level Orlando TRACON
Sun 02:19:03 PM 28.7833 -81.3667 90° East 96 110 2,200 -300 Level Orlando TRACON
Sun 02:20:03 PM 28.7833 -81.3333 90° East 102 117 1,600 -450 Descending Orlando TRACON
Sun 02:21:03 PM 28.7833 -81.3167 90° East 82 94 1,300 -400 Descending Orlando TRACON
Sun 02:22:03 PM 28.7833 -81.2833 90° East 86 99 800 -500 Descending Orlando TRACON
Sun 02:24:00 PM 28.7667 -81.2333 103° East  Level FlightAware Approximate
Sun 02:31:00 PM 28.7767 -81.2355 103° East  Level Estimated
Sun 02:32:00 PM 28.7767 -81.2355 103° East  Level Estimated

Login

Don't have an account? Register now (free) for customized features, flight alerts, and more!